Time;durP1;ratioP1;P1;durP2;ratioP2;P2;SDS_P1;SDS_P2;PMS_P1;PMS_P2;Temp;Humidity;BMP_temperature;BMP_pressure;BME280_temperature;BME280_humidity;BME280_pressure;Samples;Min_cycle;Max_cycle;Signal;HPM_P1;HPM_P2
2023/02/12 00:00:21;;;;;;;0.50;0.40;;;8.20;99.90;;;;;;5060464;28;20199;-78
2023/02/12 00:02:48;;;;;;;1.33;1.33;;;8.20;99.90;;;;;;5061370;28;20207;-79
2023/02/12 00:05:17;;;;;;;0.50;0.40;;;8.10;99.90;;;;;;5059220;28;20211;-79
2023/02/12 00:07:43;;;;;;;1.20;1.10;;;8.20;99.90;;;;;;5059002;28;20198;-78
2023/02/12 00:10:12;;;;;;;0.50;0.40;;;8.20;99.90;;;;;;5059524;28;20198;-78
2023/02/12 00:12:38;;;;;;;1.05;1.05;;;8.20;99.90;;;;;;5059027;28;20200;-79
2023/02/12 00:15:06;;;;;;;1.55;1.45;;;8.20;99.90;;;;;;5060757;28;20576;-79
2023/02/12 00:17:33;;;;;;;1.50;1.40;;;8.20;99.90;;;;;;5060126;28;20218;-78
2023/02/12 00:20:00;;;;;;;0.50;0.50;;;8.20;99.90;;;;;;5059784;28;20195;-79
2023/02/12 00:22:29;;;;;;;0.73;0.73;;;8.20;99.90;;;;;;5057809;28;20286;-79
2023/02/12 00:24:55;;;;;;;2.08;1.67;;;8.20;99.90;;;;;;5057602;28;20273;-79
2023/02/12 00:27:22;;;;;;;1.05;1.05;;;8.20;99.90;;;;;;5058317;28;20195;-78
2023/02/12 00:29:49;;;;;;;3.25;3.05;;;8.20;99.90;;;;;;5060159;28;20221;-79
2023/02/12 00:32:18;;;;;;;0.50;0.40;;;8.20;99.90;;;;;;5061574;28;20282;-79
2023/02/12 00:34:45;;;;;;;2.85;2.75;;;8.20;99.90;;;;;;5061135;28;20254;-79
2023/02/12 00:37:12;;;;;;;0.50;0.40;;;8.20;99.90;;;;;;5062840;28;20242;-79
2023/02/12 00:39:40;;;;;;;0.50;0.40;;;8.20;99.90;;;;;;5062828;28;20198;-78
2023/02/12 00:42:07;;;;;;;0.50;0.40;;;8.20;99.90;;;;;;5061722;28;20194;-77
2023/02/12 00:44:34;;;;;;;1.02;1.02;;;8.10;99.90;;;;;;5061734;28;20286;-79
2023/02/12 00:47:01;;;;;;;0.50;0.40;;;8.20;99.90;;;;;;5060650;28;20198;-79
2023/02/12 00:49:28;;;;;;;0.50;0.40;;;8.10;99.90;;;;;;5060623;28;20668;-80
2023/02/12 00:51:55;;;;;;;0.50;0.40;;;8.20;99.90;;;;;;5060758;28;20229;-78
2023/02/12 00:54:22;;;;;;;0.50;0.40;;;8.20;99.90;;;;;;5060926;28;20197;-77
2023/02/12 00:56:50;;;;;;;0.50;0.40;;;8.10;99.90;;;;;;5060822;28;20199;-78
2023/02/12 00:59:17;;;;;;;0.50;0.40;;;8.10;99.90;;;;;;5061936;28;20208;-79
2023/02/12 01:01:44;;;;;;;0.50;0.50;;;8.20;99.90;;;;;;5061804;28;20194;-79
2023/02/12 01:04:11;;;;;;;1.95;1.85;;;8.20;99.90;;;;;;5060354;28;20214;-78
2023/02/12 01:06:38;;;;;;;0.50;0.40;;;8.20;99.90;;;;;;5062133;28;20246;-78
2023/02/12 01:09:05;;;;;;;2.55;1.73;;;8.20;99.90;;;;;;5062060;28;20201;-79
2023/02/12 01:11:32;;;;;;;0.50;0.40;;;8.20;99.90;;;;;;5061206;28;20201;-78
2023/02/12 01:14:00;;;;;;;0.50;0.40;;;8.20;99.90;;;;;;5060673;28;20240;-79
2023/02/12 01:16:28;;;;;;;0.50;0.45;;;8.20;99.90;;;;;;5060687;28;20309;-79
2023/02/12 01:18:55;;;;;;;0.50;0.40;;;8.20;99.90;;;;;;5061174;28;20194;-78
2023/02/12 01:21:24;;;;;;;0.50;0.50;;;8.20;99.90;;;;;;5062536;28;20623;-79
2023/02/12 01:23:51;;;;;;;0.50;0.40;;;8.20;99.90;;;;;;5062545;28;20210;-79
2023/02/12 01:26:20;;;;;;;0.50;0.40;;;8.20;99.90;;;;;;5061208;28;20225;-75
2023/02/12 01:28:50;;;;;;;0.60;0.60;;;8.20;99.90;;;;;;5061220;28;20669;-79
2023/02/12 01:31:22;;;;;;;0.50;0.40;;;8.20;99.90;;;;;;5060620;28;20266;-79
2023/02/12 01:33:50;;;;;;;0.70;0.68;;;8.20;99.90;;;;;;5059693;28;20271;-79
2023/02/12 01:36:17;;;;;;;0.93;0.93;;;8.20;99.90;;;;;;5059168;28;20314;-79
2023/02/12 01:38:44;;;;;;;0.50;0.40;;;8.20;99.90;;;;;;5059136;28;20201;-79
2023/02/12 01:41:13;;;;;;;17.65;8.38;;;8.20;99.90;;;;;;5059928;28;20206;-79
2023/02/12 01:43:41;;;;;;;0.60;0.60;;;8.20;99.90;;;;;;5058924;28;20309;-79
2023/02/12 01:46:11;;;;;;;1.17;1.13;;;8.20;99.90;;;;;;5059033;28;20245;-79
2023/02/12 01:48:42;;;;;;;1.60;1.13;;;8.20;99.90;;;;;;5059787;28;20289;-80
2023/02/12 01:51:12;;;;;;;0.50;0.40;;;8.20;99.90;;;;;;5060335;28;20263;-79
2023/02/12 01:53:43;;;;;;;2.42;2.33;;;8.10;99.90;;;;;;5060456;28;20194;-78
2023/02/12 01:56:11;;;;;;;0.50;0.40;;;8.10;99.90;;;;;;5059873;28;20345;-79
2023/02/12 01:58:41;;;;;;;0.50;0.40;;;8.10;99.90;;;;;;5059604;28;20234;-80
2023/02/12 02:01:12;;;;;;;2.38;2.28;;;8.10;99.90;;;;;;5060886;28;20652;-79
2023/02/12 02:03:42;;;;;;;0.50;0.40;;;8.10;99.90;;;;;;5060594;28;20560;-78
2023/02/12 02:06:12;;;;;;;0.50;0.40;;;8.10;99.90;;;;;;5060604;28;20249;-78
2023/02/12 02:08:40;;;;;;;0.50;0.50;;;8.10;99.90;;;;;;5060900;28;20195;-78
2023/02/12 02:16:55;;;;;;;0.50;0.40;;;8.10;99.90;;;;;;5115854;28;20270;-78
2023/02/12 02:19:35;;;;;;;0.50;0.40;;;8.10;99.90;;;;;;5116716;28;20207;-79
2023/02/12 02:22:26;;;;;;;0.50;0.40;;;8.10;99.90;;;;;;5116591;28;20276;-78
2023/02/12 02:25:30;;;;;;;0.50;0.40;;;8.10;99.90;;;;;;5115651;28;20244;-78
2023/02/12 02:28:11;;;;;;;0.50;0.40;;;8.10;99.90;;;;;;5090029;28;20677;-78
2023/02/12 02:30:45;;;;;;;0.50;0.40;;;8.10;99.90;;;;;;5113201;28;20523;-78
2023/02/12 02:33:22;;;;;;;0.50;0.40;;;8.00;99.90;;;;;;5113053;28;20201;-79
2023/02/12 02:35:55;;;;;;;0.50;0.40;;;8.00;99.90;;;;;;5112582;28;20220;-81
2023/02/12 02:38:28;;;;;;;0.50;0.40;;;8.00;99.90;;;;;;5112520;28;20649;-77
2023/02/12 02:41:01;;;;;;;0.65;0.65;;;8.00;99.90;;;;;;5112861;28;20726;-79
2023/02/12 02:43:32;;;;;;;0.50;0.40;;;8.00;99.90;;;;;;5112925;28;20263;-79
2023/02/12 02:46:05;;;;;;;0.50;0.40;;;8.00;99.90;;;;;;5113560;28;20239;-78
2023/02/12 02:48:35;;;;;;;0.50;0.40;;;8.00;99.90;;;;;;5114797;28;20189;-78
2023/02/12 02:51:09;;;;;;;2.80;2.70;;;8.10;99.90;;;;;;5114111;28;20205;-79
2023/02/12 02:53:39;;;;;;;0.57;0.55;;;8.00;99.90;;;;;;5114376;28;20284;-78
2023/02/12 02:56:11;;;;;;;0.50;0.40;;;8.10;99.90;;;;;;5112672;28;20239;-79
2023/02/12 02:58:42;;;;;;;0.50;0.40;;;8.00;99.90;;;;;;5114408;28;20240;-77
2023/02/12 03:01:16;;;;;;;2.33;2.22;;;8.00;99.90;;;;;;5114332;28;20701;-78
2023/02/12 03:03:49;;;;;;;0.50;0.40;;;8.00;99.90;;;;;;5114150;28;20180;-78
2023/02/12 03:06:20;;;;;;;1.67;1.58;;;7.90;99.90;;;;;;5113384;28;20213;-78
2023/02/12 03:08:50;;;;;;;0.50;0.40;;;7.90;99.90;;;;;;5113808;28;20207;-77
2023/02/12 03:11:24;;;;;;;0.50;0.40;;;7.90;99.90;;;;;;5113997;28;20201;-78
2023/02/12 03:13:55;;;;;;;1.08;1.08;;;8.00;99.90;;;;;;5114073;28;20303;-78
2023/02/12 03:16:25;;;;;;;1.45;1.45;;;8.00;99.90;;;;;;5112803;28;20239;-77
2023/02/12 03:18:55;;;;;;;3.03;2.92;;;8.00;99.90;;;;;;5113224;28;20191;-78
2023/02/12 03:21:28;;;;;;;0.50;0.40;;;8.00;99.90;;;;;;5113373;28;20264;-78
2023/02/12 03:24:02;;;;;;;1.67;1.58;;;8.00;99.90;;;;;;5107246;28;20200;-78
2023/02/12 03:26:40;;;;;;;2.65;2.55;;;8.00;99.90;;;;;;5098380;28;20763;-79
2023/02/12 03:29:07;;;;;;;19.08;1.52;;;8.00;99.90;;;;;;5100495;28;20188;-78
2023/02/12 03:31:43;;;;;;;3.10;2.80;;;8.00;99.90;;;;;;5100397;28;20737;-78
2023/02/12 03:34:18;;;;;;;2.05;1.92;;;8.00;99.90;;;;;;5099155;28;20212;-78
2023/02/12 03:36:51;;;;;;;1.42;1.42;;;7.90;99.90;;;;;;5080912;22;20595;-77
2023/02/12 03:39:28;;;;;;;1.25;1.25;;;7.90;99.90;;;;;;5053818;28;20194;-74
2023/02/12 03:42:02;;;;;;;2.70;2.50;;;7.80;99.90;;;;;;5055035;28;20287;-78
2023/02/12 03:44:41;;;;;;;0.50;0.40;;;7.70;99.90;;;;;;5056074;28;20292;-77
2023/02/12 03:47:16;;;;;;;2.83;2.63;;;7.70;99.90;;;;;;5055317;28;20250;-78
2023/02/12 03:49:51;;;;;;;5.68;3.00;;;7.70;99.90;;;;;;5055828;28;20189;-79
2023/02/12 03:52:18;;;;;;;4.78;4.55;;;7.70;99.90;;;;;;5055353;28;20182;-77
2023/02/12 03:54:45;;;;;;;8.02;7.47;;;7.60;99.90;;;;;;5055402;28;20233;-78
2023/02/12 03:57:17;;;;;;;5.10;4.70;;;7.60;99.90;;;;;;5055451;28;20310;-78
2023/02/12 03:59:45;;;;;;;0.70;0.70;;;7.50;99.90;;;;;;5055791;28;20293;-78
2023/02/12 04:02:15;;;;;;;7.70;3.55;;;7.50;99.90;;;;;;5055714;28;20285;-77
2023/02/12 04:04:42;;;;;;;1.83;1.80;;;7.50;99.90;;;;;;5054662;28;20629;-76
2023/02/12 04:07:09;;;;;;;2.25;2.05;;;7.50;99.90;;;;;;5054224;28;20215;-76
2023/02/12 04:09:36;;;;;;;16.08;7.68;;;7.50;99.90;;;;;;5054562;28;20189;-77
2023/02/12 04:12:15;;;;;;;0.50;0.50;;;7.50;99.90;;;;;;5054707;28;20201;-75
2023/02/12 04:14:49;;;;;;;3.75;3.55;;;7.50;99.90;;;;;;5053753;28;20179;-76
2023/02/12 04:17:26;;;;;;;1.98;0.98;;;7.50;99.90;;;;;;5054179;28;20221;-76
2023/02/12 04:20:04;;;;;;;1.20;1.10;;;7.50;99.90;;;;;;5054561;28;20667;-77
2023/02/12 04:22:44;;;;;;;0.90;0.90;;;7.50;99.90;;;;;;5053886;28;20191;-75
2023/02/12 04:25:20;;;;;;;0.85;0.85;;;7.50;99.90;;;;;;5054428;28;20517;-75
2023/02/12 04:27:56;;;;;;;2.55;2.33;;;7.50;99.90;;;;;;5054131;28;20205;-75
2023/02/12 04:30:29;;;;;;;1.25;1.15;;;7.60;99.90;;;;;;5054691;28;20187;-76
2023/02/12 04:33:01;;;;;;;0.50;0.40;;;7.60;99.90;;;;;;5054085;28;20214;-77
2023/02/12 04:35:33;;;;;;;0.73;0.73;;;7.50;99.90;;;;;;5052896;28;20217;-77
2023/02/12 04:38:08;;;;;;;1.52;1.42;;;7.60;99.90;;;;;;5054496;28;20209;-76
2023/02/12 04:40:35;;;;;;;3.80;2.65;;;7.60;99.90;;;;;;5054640;28;20193;-78
2023/02/12 04:43:02;;;;;;;2.83;1.63;;;7.60;99.90;;;;;;5055231;28;20286;-77
2023/02/12 04:45:31;;;;;;;0.70;0.70;;;7.60;99.90;;;;;;5054420;28;20329;-78
2023/02/12 04:48:00;;;;;;;4.15;3.40;;;7.60;99.90;;;;;;5054656;28;20202;-78
2023/02/12 04:50:31;;;;;;;0.93;0.93;;;7.60;99.90;;;;;;5053900;28;20600;-75
2023/02/12 04:52:58;;;;;;;3.72;3.40;;;7.60;99.90;;;;;;5053441;28;20298;-75
2023/02/12 04:55:25;;;;;;;2.45;2.35;;;7.60;99.90;;;;;;5053630;28;20301;-77
2023/02/12 04:57:52;;;;;;;1.40;1.40;;;7.60;99.90;;;;;;5053897;28;20202;-76
2023/02/12 05:00:19;;;;;;;2.30;2.15;;;7.60;99.90;;;;;;5053749;28;20197;-76
2023/02/12 05:02:46;;;;;;;0.50;0.50;;;7.60;99.90;;;;;;5053647;28;20197;-76
2023/02/12 05:05:14;;;;;;;4.75;2.58;;;7.60;99.90;;;;;;5052808;28;20195;-76
2023/02/12 05:07:41;;;;;;;1.98;1.88;;;7.60;99.90;;;;;;5053907;28;20273;-76
2023/02/12 05:10:09;;;;;;;0.50;0.40;;;7.60;99.90;;;;;;5053762;28;20190;-76
2023/02/12 05:12:36;;;;;;;3.45;1.35;;;7.60;99.90;;;;;;5053535;28;20571;-76
2023/02/12 05:15:03;;;;;;;4.68;2.15;;;7.60;99.90;;;;;;5053176;28;20281;-76
2023/02/12 05:17:30;;;;;;;0.88;0.88;;;7.50;99.90;;;;;;5053097;28;20564;-76
2023/02/12 05:19:56;;;;;;;7.60;1.77;;;7.50;99.90;;;;;;5052428;28;20205;-76
2023/02/12 05:22:25;;;;;;;2.83;2.63;;;7.50;99.90;;;;;;5052919;28;20200;-76
2023/02/12 05:24:51;;;;;;;3.03;2.92;;;7.50;99.90;;;;;;5052531;28;20195;-76
2023/02/12 05:27:18;;;;;;;4.35;1.52;;;7.50;99.90;;;;;;5052581;28;20218;-77
2023/02/12 05:29:45;;;;;;;2.20;1.92;;;7.60;99.90;;;;;;5052387;28;20297;-76
2023/02/12 05:32:12;;;;;;;2.17;2.05;;;7.60;99.90;;;;;;5053032;28;20229;-76
2023/02/12 05:34:39;;;;;;;2.75;2.05;;;7.60;99.90;;;;;;5052512;28;20270;-75
2023/02/12 05:37:06;;;;;;;0.50;0.40;;;7.50;99.90;;;;;;5052333;28;20226;-77
2023/02/12 05:39:34;;;;;;;0.50;0.50;;;7.50;99.90;;;;;;5052586;28;20229;-76
2023/02/12 05:42:01;;;;;;;0.63;0.63;;;7.50;99.90;;;;;;5052084;28;20285;-76
2023/02/12 05:44:28;;;;;;;0.57;0.57;;;7.50;99.90;;;;;;5052160;28;20226;-75
2023/02/12 05:46:55;;;;;;;3.90;3.70;;;7.60;99.90;;;;;;5051609;28;20298;-76
2023/02/12 05:49:22;;;;;;;0.50;0.40;;;7.60;99.90;;;;;;5052886;28;20605;-77
2023/02/12 05:51:50;;;;;;;1.50;1.40;;;7.60;99.90;;;;;;5052351;28;20248;-77
2023/02/12 05:54:16;;;;;;;0.50;0.40;;;7.60;99.90;;;;;;5052259;28;20229;-76
2023/02/12 05:56:46;;;;;;;0.93;0.93;;;7.60;99.90;;;;;;5052460;28;20301;-76
2023/02/12 05:59:17;;;;;;;0.70;0.60;;;7.60;99.90;;;;;;5052120;28;20194;-78
2023/02/12 06:01:46;;;;;;;1.00;1.00;;;7.60;99.90;;;;;;5052485;28;20731;-76
2023/02/12 06:04:15;;;;;;;0.50;0.40;;;7.60;99.90;;;;;;5053154;28;20198;-79
2023/02/12 06:06:43;;;;;;;0.50;0.40;;;7.60;99.90;;;;;;5052649;28;20241;-78
2023/02/12 06:09:11;;;;;;;0.68;0.65;;;7.60;99.90;;;;;;5052618;28;20286;-76
2023/02/12 06:11:38;;;;;;;1.45;1.45;;;7.60;99.90;;;;;;5052584;28;20679;-77
2023/02/12 06:14:08;;;;;;;0.50;0.40;;;7.60;99.90;;;;;;5052415;28;20233;-76
2023/02/12 06:16:35;;;;;;;0.50;0.40;;;7.60;99.90;;;;;;5051833;28;20226;-76
2023/02/12 06:19:04;;;;;;;2.88;2.67;;;7.60;99.90;;;;;;5051528;28;20194;-76
2023/02/12 06:21:32;;;;;;;1.15;1.15;;;7.70;99.90;;;;;;5052340;28;20559;-76
2023/02/12 06:23:59;;;;;;;1.17;1.17;;;7.70;99.90;;;;;;5052224;28;20190;-77
2023/02/12 06:26:26;;;;;;;1.13;0.65;;;7.70;99.90;;;;;;5052422;28;20326;-77
2023/02/12 06:28:53;;;;;;;0.50;0.40;;;7.70;99.90;;;;;;5052119;28;20205;-76
2023/02/12 06:31:23;;;;;;;0.50;0.40;;;7.70;99.90;;;;;;5052095;28;20191;-76
2023/02/12 06:33:51;;;;;;;2.25;2.15;;;7.70;99.90;;;;;;5051786;28;20216;-77
2023/02/12 06:36:18;;;;;;;2.55;2.38;;;7.60;99.90;;;;;;5051797;28;20229;-77
2023/02/12 06:38:46;;;;;;;0.50;0.40;;;7.60;99.90;;;;;;5052255;28;20205;-77
2023/02/12 06:41:13;;;;;;;0.50;0.40;;;7.60;99.90;;;;;;5051845;28;20632;-76
2023/02/12 06:43:40;;;;;;;0.50;0.50;;;7.60;99.90;;;;;;5051273;28;20277;-76
2023/02/12 06:46:07;;;;;;;0.50;0.40;;;7.60;99.90;;;;;;5050874;28;20583;-75
2023/02/12 06:48:36;;;;;;;0.50;0.40;;;7.60;99.90;;;;;;5051269;28;20281;-76
2023/02/12 06:51:07;;;;;;;0.50;0.40;;;7.60;99.90;;;;;;5051048;28;20198;-76
2023/02/12 06:53:34;;;;;;;1.17;1.13;;;7.60;99.90;;;;;;5050671;28;20219;-76
2023/02/12 06:56:01;;;;;;;0.50;0.40;;;7.60;99.90;;;;;;5051439;28;20592;-76
2023/02/12 06:58:28;;;;;;;1.63;1.52;;;7.60;99.90;;;;;;5051193;28;20186;-76
2023/02/12 07:00:56;;;;;;;6.95;1.73;;;7.60;99.90;;;;;;5055465;28;20198;-76
2023/02/12 07:03:22;;;;;;;0.50;0.40;;;7.70;99.90;;;;;;5054702;28;20190;-76
2023/02/12 07:05:51;;;;;;;0.50;0.40;;;7.70;99.90;;;;;;5054197;28;20276;-76
2023/02/12 07:08:17;;;;;;;0.50;0.40;;;7.70;99.90;;;;;;5055062;28;20289;-77
2023/02/12 07:10:48;;;;;;;2.75;2.25;;;7.60;99.90;;;;;;5055033;28;20724;-78
2023/02/12 07:13:15;;;;;;;0.50;0.40;;;7.60;99.90;;;;;;5054476;28;20210;-77
2023/02/12 07:15:42;;;;;;;0.50;0.40;;;7.60;99.90;;;;;;5054080;28;20774;-76
2023/02/12 07:18:09;;;;;;;0.50;0.40;;;7.60;99.90;;;;;;5054780;28;20198;-76
2023/02/12 07:20:36;;;;;;;0.70;0.65;;;7.70;99.90;;;;;;5054619;28;20286;-77
2023/02/12 07:23:04;;;;;;;5.95;5.40;;;7.70;99.90;;;;;;5054663;28;20199;-78
2023/02/12 07:25:31;;;;;;;1.63;1.52;;;7.80;99.90;;;;;;5053992;28;20222;-77
2023/02/12 07:27:58;;;;;;;0.98;0.98;;;7.80;99.90;;;;;;5054486;28;20215;-76
2023/02/12 07:30:24;;;;;;;0.50;0.40;;;7.90;99.90;;;;;;5054603;28;20286;-76
2023/02/12 07:32:51;;;;;;;0.55;0.55;;;7.90;99.90;;;;;;5054497;28;20237;-77
2023/02/12 07:35:18;;;;;;;1.45;1.38;;;7.90;99.90;;;;;;5053476;28;20221;-77
2023/02/12 07:37:45;;;;;;;0.50;0.40;;;7.90;99.90;;;;;;5054543;28;20207;-76
2023/02/12 07:40:14;;;;;;;0.50;0.40;;;8.00;99.90;;;;;;5053875;28;20201;-77
2023/02/12 07:42:41;;;;;;;0.68;0.68;;;8.00;99.90;;;;;;5054673;28;20195;-77
2023/02/12 07:45:08;;;;;;;0.50;0.40;;;8.00;99.90;;;;;;5053743;28;20278;-76
2023/02/12 07:47:37;;;;;;;0.50;0.40;;;8.00;99.90;;;;;;5054183;28;20197;-78
2023/02/12 07:50:06;;;;;;;0.50;0.40;;;8.10;99.90;;;;;;5053915;28;20668;-77
2023/02/12 07:52:32;;;;;;;0.50;0.40;;;8.10;99.90;;;;;;5055032;28;20195;-77
2023/02/12 07:54:59;;;;;;;0.50;0.40;;;8.20;99.90;;;;;;5054184;28;20590;-77
2023/02/12 07:57:27;;;;;;;0.50;0.40;;;8.20;99.90;;;;;;5053966;28;20774;-77
2023/02/12 07:59:54;;;;;;;0.50;0.40;;;8.20;99.90;;;;;;5053855;28;20678;-77
2023/02/12 08:02:24;;;;;;;0.50;0.40;;;8.20;99.90;;;;;;5054012;28;20279;-77
2023/02/12 08:04:55;;;;;;;0.50;0.40;;;8.30;99.90;;;;;;5053382;28;20217;-77
2023/02/12 08:07:21;;;;;;;0.50;0.40;;;8.40;99.90;;;;;;5054189;28;20314;-75
2023/02/12 08:09:48;;;;;;;0.50;0.40;;;8.40;99.90;;;;;;5054523;28;20233;-77
2023/02/12 08:12:15;;;;;;;0.50;0.40;;;8.40;99.90;;;;;;5054603;28;20229;-77
2023/02/12 08:14:43;;;;;;;0.50;0.40;;;8.50;99.90;;;;;;5053688;28;20207;-78
2023/02/12 08:17:10;;;;;;;1.60;1.50;;;8.50;99.90;;;;;;5054834;28;20246;-76
2023/02/12 08:19:37;;;;;;;0.50;0.40;;;8.50;99.90;;;;;;5054606;28;20636;-77
2023/02/12 08:22:05;;;;;;;0.50;0.40;;;8.60;99.90;;;;;;5054757;28;20281;-76
2023/02/12 08:24:32;;;;;;;0.50;0.40;;;8.60;99.90;;;;;;5053566;28;20466;-76
2023/02/12 08:26:59;;;;;;;0.50;0.40;;;8.60;99.90;;;;;;5054193;28;20246;-76
2023/02/12 08:29:28;;;;;;;0.50;0.40;;;8.70;99.90;;;;;;5054295;28;20233;-76
2023/02/12 08:31:58;;;;;;;0.50;0.40;;;8.70;99.90;;;;;;5055219;28;20201;-76
2023/02/12 08:34:27;;;;;;;0.50;0.40;;;8.70;99.90;;;;;;5054865;28;20579;-75
2023/02/12 08:36:55;;;;;;;0.50;0.40;;;8.70;99.90;;;;;;5053867;28;20272;-76
2023/02/12 08:39:22;;;;;;;3.00;1.73;;;8.80;99.90;;;;;;5054011;28;20198;-76
2023/02/12 08:41:50;;;;;;;0.50;0.50;;;8.80;99.90;;;;;;5053972;28;20199;-76
2023/02/12 08:44:18;;;;;;;0.50;0.40;;;8.80;99.90;;;;;;5053763;28;20191;-75
2023/02/12 08:46:49;;;;;;;0.50;0.40;;;8.80;99.90;;;;;;5053353;28;20311;-76
2023/02/12 08:49:18;;;;;;;0.50;0.40;;;8.80;99.90;;;;;;5054546;28;20195;-78
2023/02/12 08:51:48;;;;;;;0.77;0.77;;;8.90;99.90;;;;;;5053891;28;20285;-75
2023/02/12 08:54:16;;;;;;;2.25;2.05;;;8.90;99.90;;;;;;5053729;28;20214;-75
2023/02/12 08:56:45;;;;;;;0.57;0.40;;;8.90;99.90;;;;;;5053238;28;20309;-77
2023/02/12 08:59:13;;;;;;;0.60;0.60;;;8.90;99.90;;;;;;5053542;28;20206;-75
2023/02/12 09:01:40;;;;;;;0.50;0.40;;;8.90;99.90;;;;;;5053611;28;20196;-77
2023/02/12 09:04:08;;;;;;;1.15;1.05;;;9.00;99.90;;;;;;5053633;28;20198;-76
2023/02/12 09:06:36;;;;;;;0.50;0.40;;;9.10;99.90;;;;;;5053021;28;20214;-77
2023/02/12 09:09:03;;;;;;;0.60;0.60;;;9.10;99.90;;;;;;5052875;28;20190;-77
2023/02/12 09:11:30;;;;;;;0.50;0.40;;;9.20;99.90;;;;;;5053416;28;20230;-76
2023/02/12 09:13:59;;;;;;;0.50;0.40;;;9.30;99.90;;;;;;5053369;28;20290;-76
2023/02/12 09:16:27;;;;;;;0.50;0.40;;;9.40;99.90;;;;;;5053131;28;20580;-76
2023/02/12 09:18:54;;;;;;;0.98;0.98;;;9.50;99.90;;;;;;5053180;28;20205;-76
2023/02/12 09:21:22;;;;;;;0.50;0.40;;;9.60;99.90;;;;;;5051972;28;20197;-76
2023/02/12 09:23:50;;;;;;;0.50;0.40;;;9.80;99.90;;;;;;5052777;28;20433;-76
2023/02/12 09:26:20;;;;;;;0.50;0.40;;;10.00;99.90;;;;;;5052332;28;20269;-77
2023/02/12 09:28:48;;;;;;;0.50;0.40;;;10.20;99.90;;;;;;5052879;28;20449;-76
2023/02/12 09:31:17;;;;;;;12.68;8.75;;;10.30;99.90;;;;;;5052505;28;20421;-74
2023/02/12 09:33:44;;;;;;;7.60;1.80;;;10.20;99.90;;;;;;5053090;28;20194;-75
2023/02/12 09:36:13;;;;;;;0.73;0.73;;;10.20;99.90;;;;;;5106254;22;20245;-76
2023/02/12 09:38:40;;;;;;;0.50;0.40;;;10.40;99.90;;;;;;5023937;28;20325;-80
2023/02/12 09:41:31;;;;;;;3.53;3.25;;;10.50;99.90;;;;;;5030520;28;20195;-80
2023/02/12 09:44:04;;;;;;;0.50;0.40;;;10.30;99.90;;;;;;5040945;28;20190;-78
2023/02/12 09:46:33;;;;;;;10.20;6.80;;;10.30;99.90;;;;;;5027419;28;20463;-80
2023/02/12 09:49:08;;;;;;;2.72;2.50;;;10.20;99.90;;;;;;5020165;28;20522;-79
2023/02/12 09:51:36;;;;;;;0.50;0.40;;;10.10;99.90;;;;;;5018899;28;20690;-80
2023/02/12 09:54:06;;;;;;;0.50;0.40;;;10.20;99.90;;;;;;5020199;28;20474;-81
2023/02/12 09:56:38;;;;;;;0.50;0.40;;;10.40;99.90;;;;;;5016935;28;20473;-79
2023/02/12 09:59:08;;;;;;;0.50;0.50;;;10.50;99.90;;;;;;5016263;28;20853;-78
2023/02/12 10:01:35;;;;;;;0.50;0.40;;;10.70;99.90;;;;;;5016094;28;20443;-79
2023/02/12 10:04:04;;;;;;;0.50;0.40;;;10.90;99.90;;;;;;5018047;28;20478;-79
2023/02/12 10:06:36;;;;;;;0.60;0.40;;;11.00;99.90;;;;;;5017098;28;20553;-79
2023/02/12 10:09:23;;;;;;;0.50;0.40;;;11.20;99.90;;;;;;5018293;28;20447;-80
2023/02/12 10:12:00;;;;;;;0.50;0.40;;;11.30;99.90;;;;;;5019029;28;20423;-80
2023/02/12 10:14:52;;;;;;;0.50;0.40;;;11.60;99.90;;;;;;5018446;28;20501;-78
2023/02/12 10:17:27;;;;;;;0.60;0.40;;;11.70;99.90;;;;;;5019342;28;20459;-81
2023/02/12 10:20:24;;;;;;;0.50;0.40;;;11.80;99.90;;;;;;5019183;28;20419;-79
2023/02/12 10:23:01;;;;;;;0.50;0.40;;;12.00;99.90;;;;;;5019965;28;20427;-80
2023/02/12 10:25:32;;;;;;;0.50;0.40;;;12.20;99.90;;;;;;5019865;28;20513;-81
2023/02/12 10:28:08;;;;;;;0.50;0.40;;;12.40;99.90;;;;;;5020109;28;20463;-79
2023/02/12 10:30:42;;;;;;;0.60;0.40;;;12.50;99.90;;;;;;5020553;28;20459;-80
2023/02/12 10:33:16;;;;;;;0.50;0.40;;;12.60;99.90;;;;;;5020435;28;20530;-80
2023/02/12 10:35:46;;;;;;;3.27;1.03;;;12.70;99.90;;;;;;5023880;28;20462;-80
2023/02/12 10:38:18;;;;;;;0.60;0.50;;;12.70;99.90;;;;;;5024739;28;20836;-79
2023/02/12 10:40:46;;;;;;;0.50;0.37;;;12.70;99.90;;;;;;5023868;28;20467;-81
2023/02/12 10:43:14;;;;;;;0.60;0.40;;;12.80;99.90;;;;;;5024210;28;20493;-80
2023/02/12 10:45:43;;;;;;;0.50;0.40;;;12.90;99.90;;;;;;5022300;28;20514;-80
2023/02/12 10:48:14;;;;;;;4.57;1.47;;;13.00;99.90;;;;;;5024325;28;20523;-79
2023/02/12 10:50:57;;;;;;;0.50;0.50;;;12.90;99.90;;;;;;5024583;28;20514;-79
2023/02/12 10:53:29;;;;;;;0.50;0.43;;;12.70;99.90;;;;;;5022107;28;20420;-78
2023/02/12 10:56:16;;;;;;;0.50;0.40;;;12.70;99.90;;;;;;5021223;28;20473;-77
2023/02/12 10:58:54;;;;;;;0.50;0.40;;;12.80;99.90;;;;;;5022839;28;20481;-79
2023/02/12 11:01:26;;;;;;;1.10;1.10;;;12.90;99.90;;;;;;5022035;28;20455;-79
2023/02/12 11:03:53;;;;;;;0.50;0.40;;;12.90;99.90;;;;;;5022848;28;20427;-79
2023/02/12 11:06:22;;;;;;;1.17;1.07;;;12.90;99.90;;;;;;5019879;28;20494;-78
2023/02/12 11:08:50;;;;;;;0.50;0.50;;;12.90;99.90;;;;;;5020466;28;20438;-79
2023/02/12 11:11:21;;;;;;;0.50;0.40;;;12.70;99.90;;;;;;5019559;28;20442;-79
2023/02/12 11:13:56;;;;;;;0.60;0.40;;;12.70;99.90;;;;;;5018315;28;20782;-78
2023/02/12 11:16:31;;;;;;;4.53;1.80;;;12.60;99.90;;;;;;5019683;28;20488;-79
2023/02/12 11:19:01;;;;;;;1.00;1.00;;;12.30;99.90;;;;;;5022156;28;20475;-75
2023/02/12 11:21:28;;;;;;;0.50;0.40;;;12.00;99.90;;;;;;5023692;28;20474;-78
2023/02/12 11:23:54;;;;;;;0.50;0.40;;;12.20;99.90;;;;;;5019110;28;20435;-79
2023/02/12 11:26:28;;;;;;;0.50;0.40;;;12.10;99.90;;;;;;5020228;28;20517;-80
2023/02/12 11:28:58;;;;;;;0.50;0.40;;;12.10;99.90;;;;;;5024879;28;20980;-79
2023/02/12 11:31:26;;;;;;;0.80;0.70;;;12.20;99.90;;;;;;5021957;28;20449;-80
2023/02/12 11:34:14;;;;;;;0.50;0.40;;;12.30;99.90;;;;;;5024217;28;20500;-80
2023/02/12 11:36:43;;;;;;;0.50;0.40;;;12.30;99.90;;;;;;5022146;28;20487;-80
2023/02/12 11:39:20;;;;;;;0.50;0.40;;;12.40;99.90;;;;;;5024853;28;20536;-80
2023/02/12 11:41:52;;;;;;;0.50;0.40;;;12.50;99.90;;;;;;5028433;28;20426;-80
2023/02/12 11:44:22;;;;;;;2.20;1.90;;;12.50;99.90;;;;;;5028788;28;20503;-80
2023/02/12 11:46:54;;;;;;;0.50;0.40;;;12.50;99.90;;;;;;5025445;28;20482;-80
2023/02/12 11:49:24;;;;;;;0.50;0.40;;;12.40;99.90;;;;;;5024042;28;20481;-81
2023/02/12 11:51:52;;;;;;;4.83;1.27;;;12.40;99.90;;;;;;5022391;28;20462;-80
2023/02/12 11:54:22;;;;;;;0.50;0.40;;;12.40;99.90;;;;;;5025712;28;20525;-80
2023/02/12 11:56:49;;;;;;;0.50;0.40;;;12.50;99.90;;;;;;5023788;28;20489;-80
2023/02/12 11:59:35;;;;;;;0.50;0.40;;;12.50;99.90;;;;;;5024693;28;20514;-79
2023/02/12 12:02:13;;;;;;;0.50;0.40;;;12.30;99.90;;;;;;5023849;28;20419;-80
2023/02/12 12:04:41;;;;;;;2.73;2.53;;;12.10;99.90;;;;;;5022472;28;20578;-80
2023/02/12 12:07:17;;;;;;;0.50;0.50;;;12.10;99.90;;;;;;5023635;28;20466;-80
2023/02/12 12:09:49;;;;;;;0.50;0.40;;;12.00;99.90;;;;;;5024334;28;20423;-80
2023/02/12 12:12:21;;;;;;;0.50;0.40;;;12.20;99.90;;;;;;5023012;28;20434;-80
2023/02/12 12:20:35;;;;;;;0.60;0.60;;;12.40;99.90;;;;;;5022804;28;20423;-79
2023/02/12 12:23:08;;;;;;;0.97;0.93;;;12.50;99.90;;;;;;5021311;28;20545;-79
2023/02/12 12:25:42;;;;;;;0.50;0.40;;;12.50;99.90;;;;;;5021781;28;20492;-79
2023/02/12 12:28:27;;;;;;;0.50;0.40;;;12.40;99.90;;;;;;5021112;28;20451;-79
2023/02/12 12:31:04;;;;;;;0.50;0.40;;;12.40;99.90;;;;;;5020493;28;20437;-80
2023/02/12 12:33:38;;;;;;;0.50;0.40;;;12.30;99.90;;;;;;5020630;28;20423;-80
2023/02/12 12:36:50;;;;;;;0.50;0.40;;;12.30;99.90;;;;;;5021265;28;20560;-78
2023/02/12 12:39:26;;;;;;;0.53;0.53;;;12.30;99.90;;;;;;5002568;28;20434;-79
2023/02/12 12:42:27;;;;;;;1.17;1.07;;;12.40;99.90;;;;;;5020263;28;20935;-80
2023/02/12 12:45:14;;;;;;;0.50;0.40;;;12.40;99.90;;;;;;5022152;28;20431;-78
2023/02/12 12:47:58;;;;;;;1.60;1.50;;;12.40;99.90;;;;;;5020056;28;20517;-79
2023/02/12 12:50:39;;;;;;;0.60;0.60;;;12.20;99.90;;;;;;5020384;28;20441;-79
2023/02/12 12:53:23;;;;;;;0.60;0.60;;;12.20;99.90;;;;;;5021178;28;20419;-76
2023/02/12 12:56:16;;;;;;;0.60;0.50;;;12.20;99.90;;;;;;5020764;28;20526;-79
2023/02/12 12:58:55;;;;;;;0.50;0.40;;;12.20;99.90;;;;;;5018844;28;20502;-80
2023/02/12 13:01:46;;;;;;;0.50;0.40;;;12.10;99.90;;;;;;5020870;28;20431;-79
2023/02/12 13:04:32;;;;;;;0.50;0.40;;;12.10;99.90;;;;;;5025462;28;20435;-77
2023/02/12 13:07:21;;;;;;;0.50;0.40;;;12.00;99.90;;;;;;5020508;28;20865;-77
2023/02/12 13:10:02;;;;;;;0.50;0.40;;;12.10;99.90;;;;;;5028892;28;20510;-78
2023/02/12 13:12:56;;;;;;;0.50;0.40;;;12.20;99.90;;;;;;5028126;28;20494;-78
2023/02/12 13:15:32;;;;;;;0.70;0.63;;;12.20;99.90;;;;;;5016450;28;20888;-79
2023/02/12 13:18:07;;;;;;;0.50;0.40;;;12.20;99.90;;;;;;5016845;28;20490;-76
2023/02/12 13:20:47;;;;;;;0.50;0.40;;;12.20;99.90;;;;;;5017281;28;20510;-77
2023/02/12 13:23:16;;;;;;;0.50;0.40;;;12.20;99.90;;;;;;5020134;28;20462;-80